createdAt,value
2018-09-15T00:02:22.171Z,3.75
2018-09-15T00:04:50.335Z,2.62
2018-09-15T00:07:18.473Z,4.75
2018-09-15T00:09:46.631Z,4.50
2018-09-15T00:12:14.796Z,6.67
2018-09-15T00:14:42.954Z,4.58
2018-09-15T00:17:11.682Z,3.02
2018-09-15T00:19:39.907Z,2.65
2018-09-15T00:22:08.050Z,3.05
2018-09-15T00:24:36.229Z,4.58
2018-09-15T00:27:04.419Z,3.65
2018-09-15T00:29:32.595Z,3.62
2018-09-15T00:32:00.791Z,2.95
2018-09-15T00:34:28.951Z,2.47
2018-09-15T00:36:57.104Z,13.25
2018-09-15T00:39:25.263Z,4.70
2018-09-15T00:41:53.451Z,5.97
2018-09-15T00:44:21.587Z,5.95
2018-09-15T00:46:49.786Z,6.10
2018-09-15T00:49:17.866Z,5.35
2018-09-15T00:51:46.035Z,5.50
2018-09-15T00:54:14.214Z,3.77
2018-09-15T00:56:42.379Z,4.65
2018-09-15T00:59:10.561Z,2.45
2018-09-15T01:01:38.742Z,3.10
2018-09-15T01:04:06.909Z,2.60
2018-09-15T01:06:35.100Z,3.30
2018-09-15T01:09:03.398Z,3.08
2018-09-15T01:11:31.738Z,3.52
2018-09-15T01:13:59.959Z,3.58
2018-09-15T01:16:28.071Z,4.15
2018-09-15T01:18:56.262Z,2.65
2018-09-15T01:21:24.518Z,3.90
2018-09-15T01:23:52.706Z,4.60
2018-09-15T01:26:20.866Z,4.72
2018-09-15T01:28:51.965Z,2.70
2018-09-15T01:31:22.371Z,3.10
2018-09-15T01:33:50.871Z,4.20
2018-09-15T01:36:19.050Z,5.08
2018-09-15T01:38:47.215Z,3.60
2018-09-15T01:41:15.515Z,6.40
2018-09-15T01:43:43.753Z,4.87
2018-09-15T01:46:11.914Z,6.15
2018-09-15T01:48:40.087Z,4.15
2018-09-15T01:51:08.250Z,4.97
2018-09-15T01:53:36.413Z,6.45
2018-09-15T01:56:04.567Z,4.83
2018-09-15T01:58:32.763Z,2.58
2018-09-15T02:01:00.931Z,3.37
2018-09-15T02:03:29.350Z,3.60
2018-09-15T02:05:57.938Z,5.83
2018-09-15T02:08:26.119Z,4.78
2018-09-15T02:10:54.286Z,4.95
2018-09-15T02:13:23.290Z,3.45
2018-09-15T02:15:51.503Z,4.50
2018-09-15T02:18:19.687Z,9.33
2018-09-15T02:20:47.849Z,5.40
2018-09-15T02:23:16.043Z,6.03
2018-09-15T02:25:44.226Z,3.47
2018-09-15T02:28:12.471Z,4.37
2018-09-15T02:30:40.666Z,4.53
2018-09-15T02:33:08.830Z,5.67
2018-09-15T02:35:37.006Z,4.08
2018-09-15T02:38:05.203Z,5.25
2018-09-15T02:40:33.369Z,6.47
2018-09-15T02:43:01.531Z,7.87
2018-09-15T02:45:29.711Z,6.25
2018-09-15T02:47:57.913Z,8.80
2018-09-15T02:50:26.086Z,4.67
2018-09-15T02:52:54.238Z,7.33
2018-09-15T02:55:22.395Z,5.28
2018-09-15T02:57:50.567Z,5.10
2018-09-15T03:00:18.753Z,5.25
2018-09-15T03:02:46.971Z,4.30
2018-09-15T03:05:15.366Z,5.47
2018-09-15T03:07:43.534Z,8.18
2018-09-15T03:10:11.690Z,4.05
2018-09-15T03:12:39.872Z,5.28
2018-09-15T03:15:08.087Z,8.90
2018-09-15T03:17:36.264Z,5.00
2018-09-15T03:20:05.051Z,5.65
2018-09-15T03:22:33.314Z,6.80
2018-09-15T03:25:01.523Z,5.92
2018-09-15T03:27:29.688Z,5.28
2018-09-15T03:29:57.855Z,4.05
2018-09-15T03:32:26.036Z,5.12
2018-09-15T03:34:54.202Z,6.65
2018-09-15T03:37:22.483Z,6.42
2018-09-15T03:39:50.643Z,7.03
2018-09-15T03:42:18.807Z,6.35
2018-09-15T03:44:47.006Z,7.92
2018-09-15T03:47:15.170Z,5.80
2018-09-15T03:49:43.330Z,5.47
2018-09-15T03:52:11.500Z,6.55
2018-09-15T03:54:39.653Z,6.15
2018-09-15T03:57:07.822Z,5.65
2018-09-15T03:59:35.979Z,7.47
2018-09-15T04:02:04.122Z,8.13
2018-09-15T04:04:32.267Z,8.65
2018-09-15T04:07:00.441Z,6.30
2018-09-15T04:09:28.594Z,6.22
2018-09-15T04:11:56.746Z,6.03
2018-09-15T04:14:24.896Z,8.68
2018-09-15T04:16:53.093Z,4.78
2018-09-15T04:19:21.309Z,7.53
2018-09-15T04:21:49.465Z,6.45
2018-09-15T04:24:17.611Z,7.72
2018-09-15T04:26:45.759Z,5.62
2018-09-15T04:29:13.887Z,6.50
2018-09-15T04:31:42.075Z,7.35
2018-09-15T04:34:10.246Z,9.20
2018-09-15T04:36:38.382Z,7.55
2018-09-15T04:39:08.805Z,8.60
2018-09-15T04:41:36.948Z,8.43
2018-09-15T04:44:05.133Z,9.13
2018-09-15T04:46:33.315Z,7.78
2018-09-15T04:49:01.482Z,8.73
2018-09-15T04:51:29.655Z,4.12
2018-09-15T04:53:57.820Z,5.50
2018-09-15T04:56:26.089Z,9.05
2018-09-15T04:58:54.350Z,5.37
2018-09-15T05:01:22.479Z,4.55
2018-09-15T05:03:50.666Z,7.05
2018-09-15T05:06:18.807Z,6.95
2018-09-15T05:08:47.028Z,7.50
2018-09-15T05:11:15.228Z,4.97
2018-09-15T05:13:43.382Z,8.08
2018-09-15T05:16:11.530Z,7.05
2018-09-15T05:18:39.711Z,9.08
2018-09-15T05:21:07.851Z,5.35
2018-09-15T05:23:35.989Z,8.23
2018-09-15T05:26:04.154Z,6.22
2018-09-15T05:28:32.326Z,7.50
2018-09-15T05:31:00.520Z,9.10
2018-09-15T05:33:28.734Z,8.43
2018-09-15T05:35:56.903Z,6.65
2018-09-15T05:38:25.051Z,6.25
2018-09-15T05:40:53.215Z,6.28
2018-09-15T05:43:21.362Z,8.63
2018-09-15T05:45:49.517Z,7.22
2018-09-15T05:48:17.664Z,9.33
2018-09-15T05:50:45.824Z,9.73
2018-09-15T05:53:14.022Z,11.08
2018-09-15T05:55:42.186Z,5.45
2018-09-15T05:58:10.355Z,7.60
2018-09-15T06:00:38.554Z,9.78
2018-09-15T06:03:06.755Z,9.80
2018-09-15T06:05:35.011Z,7.72
2018-09-15T06:08:03.161Z,5.60
2018-09-15T06:10:31.322Z,7.35
2018-09-15T06:12:59.483Z,8.55
2018-09-15T06:15:27.780Z,5.72
2018-09-15T06:17:55.966Z,9.65
2018-09-15T06:20:24.207Z,11.25
2018-09-15T06:22:52.399Z,4.97
2018-09-15T06:25:20.558Z,5.28
2018-09-15T06:27:48.758Z,5.45
2018-09-15T06:30:16.924Z,8.03
2018-09-15T06:32:45.115Z,6.03
2018-09-15T06:35:13.278Z,7.03
2018-09-15T06:37:41.453Z,8.95
2018-09-15T06:40:09.602Z,9.38
2018-09-15T06:42:37.759Z,7.00
2018-09-15T06:45:05.995Z,6.25
2018-09-15T06:47:34.198Z,8.43
2018-09-15T06:50:02.346Z,8.08
2018-09-15T06:52:30.574Z,7.75
2018-09-15T06:54:58.751Z,9.68
2018-09-15T06:57:26.931Z,6.97
2018-09-15T06:59:55.106Z,8.13
2018-09-15T07:02:23.259Z,8.90
2018-09-15T07:04:51.419Z,5.03
2018-09-15T07:07:19.591Z,7.00
2018-09-15T07:09:47.764Z,5.65
2018-09-15T07:12:15.945Z,6.20
2018-09-15T07:14:44.158Z,8.55
2018-09-15T07:17:12.390Z,6.03
2018-09-15T07:19:40.579Z,8.35
2018-09-15T07:22:08.771Z,7.40
2018-09-15T07:24:37.111Z,6.28
2018-09-15T07:27:05.285Z,9.33
2018-09-15T07:29:33.458Z,6.72
2018-09-15T07:32:01.678Z,9.33
2018-09-15T07:34:29.810Z,7.03
2018-09-15T07:36:57.971Z,11.75
2018-09-15T07:39:26.239Z,6.37
2018-09-15T07:41:54.402Z,7.67
2018-09-15T07:44:23.291Z,8.55
2018-09-15T07:46:51.498Z,7.12
2018-09-15T07:49:19.700Z,11.35
2018-09-15T07:51:47.875Z,10.13
2018-09-15T07:54:16.068Z,8.53
2018-09-15T07:56:44.206Z,7.80
2018-09-15T07:59:12.390Z,8.43
2018-09-15T08:01:40.534Z,9.30
2018-09-15T08:04:08.738Z,9.88
2018-09-15T08:06:36.886Z,8.30
2018-09-15T08:09:06.302Z,6.97
2018-09-15T08:11:34.757Z,6.33
2018-09-15T08:14:02.890Z,11.30
2018-09-15T08:16:31.030Z,9.85
2018-09-15T08:18:59.189Z,6.03
2018-09-15T08:21:27.346Z,6.05
2018-09-15T08:23:55.501Z,6.67
2018-09-15T08:26:23.651Z,6.40
2018-09-15T08:28:51.787Z,7.40
2018-09-15T08:31:19.980Z,6.12
2018-09-15T08:33:48.262Z,10.23
2018-09-15T08:36:16.401Z,7.12
2018-09-15T08:38:44.595Z,6.08
2018-09-15T08:41:12.751Z,5.30
2018-09-15T08:43:41.007Z,5.95
2018-09-15T08:46:09.150Z,6.72
2018-09-15T08:48:37.295Z,5.78
2018-09-15T08:51:05.473Z,7.25
2018-09-15T08:53:33.662Z,10.85
2018-09-15T08:58:35.423Z,8.73
2018-09-15T09:01:03.589Z,9.88
2018-09-15T09:03:31.758Z,7.53
2018-09-15T09:05:59.909Z,7.65
2018-09-15T09:08:28.057Z,6.05
2018-09-15T09:10:56.210Z,9.88
2018-09-15T09:13:24.390Z,7.35
2018-09-15T09:15:52.550Z,7.08
2018-09-15T09:18:20.725Z,5.08
2018-09-15T09:20:48.882Z,5.40
2018-09-15T09:23:17.058Z,8.48
2018-09-15T09:25:45.232Z,5.97
2018-09-15T09:28:13.450Z,7.62
2018-09-15T09:30:41.614Z,6.50
2018-09-15T09:33:09.827Z,5.58
2018-09-15T09:35:38.087Z,6.55
2018-09-15T09:38:06.299Z,6.15
2018-09-15T09:40:34.469Z,11.08
2018-09-15T09:43:02.643Z,7.75
2018-09-15T09:45:30.807Z,6.75
2018-09-15T09:47:59.128Z,8.78
2018-09-15T09:50:27.170Z,8.53
2018-09-15T09:52:55.383Z,6.15
2018-09-15T09:55:23.534Z,5.17
2018-09-15T09:57:51.694Z,5.33
2018-09-15T10:00:25.279Z,5.05
2018-09-15T10:02:53.459Z,3.42
2018-09-15T10:05:21.611Z,4.03
2018-09-15T10:07:49.779Z,4.92
2018-09-15T10:10:17.950Z,6.87
2018-09-15T10:12:46.129Z,8.75
2018-09-15T10:15:14.299Z,6.83
2018-09-15T10:17:42.464Z,7.37
2018-09-15T10:20:10.649Z,4.45
2018-09-15T10:22:38.803Z,5.80
2018-09-15T10:25:07.265Z,4.58
2018-09-15T10:27:35.438Z,4.03
2018-09-15T10:30:03.602Z,7.17
2018-09-15T10:32:31.770Z,4.17
2018-09-15T10:34:59.971Z,5.78
2018-09-15T10:37:28.166Z,5.53
2018-09-15T10:39:56.327Z,4.37
2018-09-15T10:42:24.515Z,3.62
2018-09-15T10:44:52.686Z,3.95
2018-09-15T10:47:20.871Z,4.67
2018-09-15T10:49:49.398Z,2.58
2018-09-15T10:52:17.592Z,1.82
2018-09-15T10:54:45.741Z,4.70
2018-09-15T10:57:13.942Z,5.08
2018-09-15T10:59:42.121Z,3.58
2018-09-15T11:02:12.822Z,3.35
2018-09-15T11:04:41.614Z,5.08
2018-09-15T11:07:09.783Z,3.67
2018-09-15T11:09:37.937Z,6.95
2018-09-15T11:12:06.136Z,7.55
2018-09-15T11:14:34.306Z,4.33
2018-09-15T11:17:02.470Z,5.75
2018-09-15T11:19:30.630Z,3.50
2018-09-15T11:21:58.786Z,2.90
2018-09-15T11:24:26.966Z,4.58
2018-09-15T11:26:55.482Z,3.15
2018-09-15T11:29:23.644Z,6.20
2018-09-15T11:31:51.819Z,4.45
2018-09-15T11:34:20.014Z,4.47
2018-09-15T11:36:48.178Z,4.47
2018-09-15T11:39:16.556Z,5.05
2018-09-15T11:41:44.775Z,5.05
2018-09-15T11:44:13.031Z,3.40
2018-09-15T11:46:41.205Z,7.35
2018-09-15T11:49:09.358Z,3.42
2018-09-15T11:51:37.517Z,6.62
2018-09-15T11:54:05.685Z,4.67
2018-09-15T11:56:33.850Z,4.47
2018-09-15T11:59:02.018Z,3.62
2018-09-15T12:01:30.170Z,5.33
2018-09-15T12:03:58.354Z,3.67
2018-09-15T12:06:26.516Z,6.55
2018-09-15T12:08:54.768Z,3.45
2018-09-15T12:11:22.886Z,3.22
2018-09-15T12:13:51.178Z,4.95
2018-09-15T12:16:19.357Z,6.25
2018-09-15T12:18:47.528Z,5.83
2018-09-15T12:21:15.700Z,5.03
2018-09-15T12:23:44.078Z,4.45
2018-09-15T12:26:12.518Z,4.25
2018-09-15T12:28:40.710Z,3.95
2018-09-15T12:31:08.894Z,5.00
2018-09-15T12:33:37.139Z,4.65
2018-09-15T12:36:05.314Z,4.03
2018-09-15T12:38:33.489Z,5.70
2018-09-15T12:41:01.679Z,3.87
2018-09-15T12:43:29.850Z,5.47
2018-09-15T12:45:57.989Z,6.75
2018-09-15T12:48:26.169Z,3.42
2018-09-15T12:50:54.322Z,4.30
2018-09-15T12:53:22.478Z,5.53
2018-09-15T12:55:50.655Z,3.87
2018-09-15T12:58:18.809Z,4.83
2018-09-15T13:00:47.005Z,5.22
2018-09-15T13:03:15.164Z,4.10
2018-09-15T13:05:43.322Z,2.65
2018-09-15T13:08:11.503Z,2.90
2018-09-15T13:10:39.671Z,2.55
2018-09-15T13:13:07.863Z,4.17
2018-09-15T13:15:36.080Z,4.42
2018-09-15T13:18:04.194Z,8.78
2018-09-15T13:20:32.366Z,6.70
2018-09-15T13:23:00.809Z,3.30
2018-09-15T13:25:29.317Z,3.10
2018-09-15T13:27:57.616Z,3.37
2018-09-15T13:30:25.848Z,4.90
2018-09-15T13:32:53.946Z,6.03
2018-09-15T13:35:22.163Z,7.12
2018-09-15T13:37:50.390Z,8.40
2018-09-15T13:40:18.558Z,4.95
2018-09-15T13:42:46.725Z,4.22
2018-09-15T13:45:14.891Z,8.60
2018-09-15T13:47:43.066Z,4.60
2018-09-15T13:50:11.266Z,6.03
2018-09-15T13:52:39.434Z,2.58
2018-09-15T13:55:07.650Z,6.03
2018-09-15T13:57:35.826Z,5.33
2018-09-15T14:00:04.454Z,2.98
2018-09-15T14:02:36.048Z,7.33
2018-09-15T14:05:04.662Z,2.37
2018-09-15T14:07:32.887Z,4.58
2018-09-15T14:10:07.044Z,2.75
2018-09-15T14:12:29.279Z,2.20
2018-09-15T14:14:57.470Z,3.35
2018-09-15T14:17:25.667Z,4.55
2018-09-15T14:19:53.859Z,4.47
2018-09-15T14:22:22.193Z,7.08
2018-09-15T14:24:50.333Z,5.85
2018-09-15T14:27:18.497Z,3.95
2018-09-15T14:29:46.711Z,5.08
2018-09-15T14:32:14.865Z,3.80
2018-09-15T14:34:43.023Z,3.35
2018-09-15T14:37:11.292Z,7.03
2018-09-15T14:39:39.466Z,2.20
2018-09-15T14:42:07.666Z,3.17
2018-09-15T14:44:35.850Z,3.85
2018-09-15T14:47:04.022Z,2.87
2018-09-15T14:49:32.197Z,3.80
2018-09-15T14:52:00.820Z,4.30
2018-09-15T14:54:28.979Z,1.82
2018-09-15T14:56:57.342Z,4.90
2018-09-15T14:59:25.544Z,7.35
2018-09-15T15:01:53.713Z,4.97
2018-09-15T15:04:21.998Z,2.58
2018-09-15T15:06:50.146Z,3.30
2018-09-15T15:09:18.435Z,3.85
2018-09-15T15:11:46.614Z,2.60
2018-09-15T15:14:14.840Z,3.10
2018-09-15T15:16:43.067Z,4.25
2018-09-15T15:19:11.300Z,4.90
2018-09-15T15:21:39.471Z,2.58
2018-09-15T15:24:07.812Z,5.55
2018-09-15T15:26:36.100Z,2.87
2018-09-15T15:29:04.190Z,1.45
2018-09-15T15:31:32.411Z,2.62
2018-09-15T15:34:00.507Z,4.20
2018-09-15T15:36:28.710Z,7.25
2018-09-15T15:38:57.672Z,2.37
2018-09-15T15:41:25.870Z,4.08
2018-09-15T15:43:54.231Z,2.20
2018-09-15T15:46:22.471Z,2.20
2018-09-15T15:48:50.626Z,4.97
2018-09-15T15:51:18.845Z,2.72
2018-09-15T15:53:46.942Z,3.22
2018-09-15T15:56:15.114Z,3.72
2018-09-15T15:58:43.812Z,3.00
2018-09-15T16:01:11.993Z,5.30
2018-09-15T16:03:40.354Z,4.47
2018-09-15T16:06:08.596Z,3.22
2018-09-15T16:08:36.750Z,4.30
2018-09-15T16:11:05.042Z,4.25
2018-09-15T16:13:33.302Z,5.97
2018-09-15T16:16:01.480Z,4.00
2018-09-15T16:18:29.762Z,4.80
2018-09-15T16:20:57.997Z,4.83
2018-09-15T16:23:26.198Z,4.22
2018-09-15T16:25:54.442Z,4.97
2018-09-15T16:28:22.642Z,4.50
2018-09-15T16:30:50.906Z,4.12
2018-09-15T16:33:19.062Z,5.17
2018-09-15T16:35:47.254Z,5.08
2018-09-15T16:38:15.886Z,5.40
2018-09-15T16:40:44.243Z,4.08
2018-09-15T16:43:12.272Z,5.87
2018-09-15T16:45:40.447Z,4.22
2018-09-15T16:48:08.701Z,3.27
2018-09-15T16:50:37.055Z,3.22
2018-09-15T16:53:05.567Z,4.78
2018-09-15T16:55:34.066Z,4.10
2018-09-15T16:58:02.332Z,3.55
2018-09-15T17:00:30.991Z,5.85
2018-09-15T17:02:59.905Z,3.22
2018-09-15T17:05:28.198Z,3.30
2018-09-15T17:07:56.411Z,3.15
2018-09-15T17:10:24.578Z,4.28
2018-09-15T17:12:52.712Z,3.27
2018-09-15T17:15:20.851Z,2.85
2018-09-15T17:17:54.197Z,3.00
2018-09-15T17:20:22.426Z,1.40
2018-09-15T17:22:50.652Z,3.15
2018-09-15T17:25:19.116Z,2.77
2018-09-15T17:27:47.470Z,2.60
2018-09-15T17:30:15.962Z,2.22
2018-09-15T17:32:44.276Z,2.40
2018-09-15T17:35:12.537Z,2.40
2018-09-15T17:37:40.834Z,3.05
2018-09-15T17:40:09.190Z,3.40
2018-09-15T17:42:37.435Z,1.87
2018-09-15T17:45:05.775Z,2.10
2018-09-15T17:47:33.942Z,4.45
2018-09-15T17:50:02.116Z,2.40
2018-09-15T17:52:30.401Z,2.05
2018-09-15T17:54:58.605Z,8.08
2018-09-15T17:57:28.166Z,2.65
2018-09-15T17:59:56.357Z,3.83
2018-09-15T18:02:24.538Z,1.07
2018-09-15T18:04:52.840Z,2.60
2018-09-15T18:07:21.099Z,3.37
2018-09-15T18:09:49.519Z,4.00
2018-09-15T18:12:17.846Z,2.65
2018-09-15T18:14:46.130Z,1.45
2018-09-15T18:17:14.300Z,1.67
2018-09-15T18:19:42.678Z,1.95
2018-09-15T18:22:10.980Z,2.20
2018-09-15T18:24:39.187Z,1.60
2018-09-15T18:27:07.458Z,2.83
2018-09-15T18:29:35.675Z,3.98
2018-09-15T18:32:03.891Z,2.30
2018-09-15T18:34:32.125Z,2.70
2018-09-15T18:37:00.517Z,2.98
2018-09-15T18:39:28.641Z,5.00
2018-09-15T18:41:57.058Z,5.65
2018-09-15T18:44:25.225Z,3.02
2018-09-15T18:46:53.599Z,0.93
2018-09-15T18:49:21.842Z,5.08
2018-09-15T18:51:50.132Z,2.85
2018-09-15T18:54:18.597Z,1.42
2018-09-15T18:56:46.889Z,3.67
2018-09-15T18:59:15.166Z,2.65
2018-09-15T19:01:43.462Z,3.00
2018-09-15T19:04:11.694Z,4.00
2018-09-15T19:06:39.867Z,2.95
2018-09-15T19:09:10.073Z,2.42
2018-09-15T19:11:38.328Z,1.52
2018-09-15T19:14:06.615Z,3.45
2018-09-15T19:16:34.981Z,2.75
2018-09-15T19:19:03.192Z,1.75
2018-09-15T19:21:31.479Z,2.30
2018-09-15T19:23:59.770Z,2.60
2018-09-15T19:26:28.044Z,1.62
2018-09-15T19:28:57.131Z,2.50
2018-09-15T19:31:25.416Z,2.42
2018-09-15T19:33:53.866Z,2.60
2018-09-15T19:36:22.129Z,4.55
2018-09-15T19:38:50.442Z,1.92
2018-09-15T19:41:18.740Z,2.83
2018-09-15T19:43:47.130Z,4.40
2018-09-15T19:46:15.450Z,2.52
2018-09-15T19:48:43.634Z,1.98
2018-09-15T19:51:11.853Z,3.40
2018-09-15T19:53:40.082Z,1.50
2018-09-15T19:56:08.331Z,2.20
2018-09-15T19:58:36.568Z,1.62
2018-09-15T20:01:04.798Z,3.20
2018-09-15T20:03:33.050Z,1.82
2018-09-15T20:06:01.424Z,1.87
2018-09-15T20:08:29.578Z,2.12
2018-09-15T20:10:57.747Z,4.50
2018-09-15T20:13:26.020Z,2.10
2018-09-15T20:15:53.195Z,1.80
2018-09-15T20:18:20.371Z,3.40
2018-09-15T20:20:47.562Z,2.72
2018-09-15T20:23:15.730Z,3.60
2018-09-15T20:25:43.885Z,2.67
2018-09-15T20:28:12.079Z,3.80
2018-09-15T20:30:40.218Z,1.95
2018-09-15T20:33:08.474Z,3.20
2018-09-15T20:35:36.548Z,6.08
2018-09-15T20:38:04.713Z,2.83
2018-09-15T20:40:32.994Z,2.00
2018-09-15T20:43:01.054Z,5.25
2018-09-15T20:45:29.223Z,1.95
2018-09-15T20:47:57.406Z,3.25
2018-09-15T20:50:25.544Z,5.10
2018-09-15T20:52:53.694Z,2.52
2018-09-15T20:55:21.837Z,3.83
2018-09-15T20:57:50.001Z,4.25
2018-09-15T21:00:18.174Z,2.22
2018-09-15T21:02:46.358Z,4.28
2018-09-15T21:05:14.518Z,2.95
2018-09-15T21:07:42.720Z,3.15
2018-09-15T21:10:10.909Z,2.60
2018-09-15T21:12:39.070Z,2.77
2018-09-15T21:15:07.254Z,3.45
2018-09-15T21:17:35.490Z,4.08
2018-09-15T21:20:03.695Z,3.70
2018-09-15T21:22:31.999Z,2.08
2018-09-15T21:25:00.400Z,2.60
2018-09-15T21:27:28.650Z,4.40
2018-09-15T21:29:56.894Z,2.87
2018-09-15T21:32:25.175Z,1.55
2018-09-15T21:34:53.398Z,3.67
2018-09-15T21:37:21.834Z,2.15
2018-09-15T21:39:49.990Z,3.08
2018-09-15T21:42:18.175Z,4.40
2018-09-15T21:44:46.350Z,3.62
2018-09-15T21:47:14.486Z,2.90
2018-09-15T21:49:42.682Z,3.12
2018-09-15T21:52:10.850Z,2.65
2018-09-15T21:54:39.002Z,5.30
2018-09-15T21:57:07.168Z,2.35
2018-09-15T21:59:35.849Z,3.22
2018-09-15T22:02:04.043Z,2.02
2018-09-15T22:04:32.218Z,2.60
2018-09-15T22:07:00.410Z,2.02
2018-09-15T22:09:28.636Z,4.95
2018-09-15T22:11:56.758Z,5.30
2018-09-15T22:14:25.068Z,2.92
2018-09-15T22:16:53.258Z,5.28
2018-09-15T22:19:21.406Z,3.40
2018-09-15T22:21:49.778Z,2.35
2018-09-15T22:24:18.315Z,1.82
2018-09-15T22:26:46.686Z,2.58
2018-09-15T22:29:14.884Z,2.65
2018-09-15T22:31:43.065Z,2.58
2018-09-15T22:34:11.311Z,2.80
2018-09-15T22:36:39.404Z,2.22
2018-09-15T22:39:08.750Z,2.98
2018-09-15T22:41:37.399Z,5.12
2018-09-15T22:44:05.597Z,3.50
2018-09-15T22:46:33.760Z,2.85
2018-09-15T22:49:01.927Z,3.27
2018-09-15T22:51:30.098Z,3.10
2018-09-15T22:53:58.416Z,3.85
2018-09-15T22:56:26.918Z,2.60
2018-09-15T22:58:55.194Z,1.98
2018-09-15T23:01:23.690Z,3.52
2018-09-15T23:03:56.247Z,2.83
2018-09-15T23:06:24.518Z,3.98
2018-09-15T23:08:52.658Z,4.83
2018-09-15T23:11:20.810Z,2.75
2018-09-15T23:13:48.960Z,2.33
2018-09-15T23:16:17.107Z,3.92
2018-09-15T23:18:45.279Z,3.62
2018-09-15T23:21:13.439Z,2.92
2018-09-15T23:23:41.594Z,2.60
2018-09-15T23:26:09.753Z,4.37
2018-09-15T23:28:38.016Z,3.17
2018-09-15T23:31:06.166Z,2.42
2018-09-15T23:33:34.318Z,1.98
2018-09-15T23:36:02.474Z,3.27
2018-09-15T23:38:30.686Z,4.42
2018-09-15T23:40:59.643Z,3.52
2018-09-15T23:43:27.779Z,2.52
2018-09-15T23:45:55.962Z,4.97
2018-09-15T23:48:24.163Z,2.95
2018-09-15T23:50:52.423Z,2.33
2018-09-15T23:53:20.570Z,5.70
2018-09-15T23:55:48.726Z,4.22
2018-09-15T23:58:16.866Z,3.40
